Aviation Digital Data Service (ADDS)

Output produced by METARs form (0537 UTC 18 September 2014)
found at http://aviationweather.gov/adds/metars/
 
KLCH 180453Z AUTO 00000KT 10SM FEW001 24/24 A2992 RMK AO2 SLP138 T02440239